Morning Linda — 3ETI — position and weather

sailwx.info

Track history (hours):
 
Tides and Currents Weather Stations Pressure Air Temp Water Temp Dewpoint Dewpoint Depression Visibility Wind Speed Wind Dir Waves Ship Positions

Morning Linda

Last reported at 2018-Feb-11 15:50 UTC. Time now 2018-Feb-22 19:26 UTC.
Position N 41°36' E 141°47'.
Warning: this ship's position is 11 days out of date.

Length 232 m; draft 9.3 m.

MMSI: 370567000.

Date/timePositionNaut miles runAvg speedWind from/ knotsBaromVisibWave heightAir tempDewpointWater temp
2018-Feb-11 15:50N 41°36' E 141°47'617.1
2018-Feb-11 15:30N 41°37' E 141°40'918.6
2018-Feb-11 15:00N 41°38' E 141°27'917.3
2018-Feb-11 14:30N 41°37' E 141°16'918.1
2018-Feb-11 14:01N 41°37' E 141°04'1019.6
2018-Feb-11 13:31N 41°36' E 140°51'918.2
2018-Feb-11 13:00N 41°30' E 140°41'918.1
2018-Feb-11 12:31N 41°25' E 140°31'918.1
2018-Feb-11 12:00N 41°20' E 140°21'917.4
2018-Feb-11 11:29N 41°15' E 140°11'  
Track history (hours):
 
Tides and Currents Weather Stations Pressure Air Temp Water Temp Dewpoint Dewpoint Depression Visibility Wind Speed Wind Dir Waves Ship Positions

Morning Linda

Last reported at 2018-Feb-11 15:50 UTC. Time now 2018-Feb-22 19:26 UTC.
Position N 41°36' E 141°47'.
Warning: this ship's position is 11 days out of date.

Length 232 m; draft 9.3 m.

MMSI: 370567000.

Date/timePositionNaut miles runAvg speedWind from/ knotsBaromVisibWave heightAir tempDewpointWater temp
2018-Feb-11 15:50N 41°36' E 141°47'617.1
2018-Feb-11 15:30N 41°37' E 141°40'918.6
2018-Feb-11 15:00N 41°38' E 141°27'917.3
2018-Feb-11 14:30N 41°37' E 141°16'918.1
2018-Feb-11 14:01N 41°37' E 141°04'1019.6
2018-Feb-11 13:31N 41°36' E 140°51'918.2
2018-Feb-11 13:00N 41°30' E 140°41'918.1
2018-Feb-11 12:31N 41°25' E 140°31'918.1
2018-Feb-11 12:00N 41°20' E 140°21'917.4
2018-Feb-11 11:29N 41°15' E 140°11'  

Dump ship's entire track history